Wetterdaten der Wetterstation 59969 Hallenberg

Letzte Wetterlage 18.04.2015 14:36
Wetterdiagramm
Tabellarische Darstellung
Datum Temperatur Windchill Feuchte Luftdruck Windrichtung Windstärke Niederschlag
18.04.2015 14:56 9,6 °C 9,6 °C 49 % 1023,4 hPa 0 l/m²
18.04.2015 14:36 8,9 °C 8,9 °C 48 % 1023,4 hPa 0 l/m²
18.04.2015 14:15 8,6 °C 8,6 °C 50 % 1023,4 hPa 0 l/m²
18.04.2015 13:54 8,1 °C 8,1 °C 48 % 1023,4 hPa 0 l/m²
18.04.2015 13:34 8,0 °C 8,0 °C 50 % 1023,4 hPa 0 l/m²
18.04.2015 13:13 8,4 °C 8,4 °C 50 % 1023,4 hPa 0 l/m²
18.04.2015 12:52 8,2 °C 8,2 °C 52 % 1024,4 hPa 0 l/m²
18.04.2015 12:31 7,2 °C 7,2 °C 55 % 1023,4 hPa 0 l/m²
18.04.2015 12:10 8,2 °C 8,2 °C 52 % 1023,4 hPa 0 l/m²
18.04.2015 11:49 7,8 °C 7,8 °C 58 % 1024,4 hPa 0 l/m²
18.04.2015 11:28 6,2 °C 6,2 °C 61 % 1023,4 hPa 0 l/m²
18.04.2015 11:07 6,2 °C 6,2 °C 62 % 1023,4 hPa 0 l/m²
18.04.2015 10:46 5,6 °C 5,6 °C 64 % 1023,4 hPa 0 l/m²
18.04.2015 10:26 5,5 °C 5,5 °C 64 % 1023,4 hPa 0 l/m²
18.04.2015 09:45 4,6 °C 4,6 °C 72 % 1023,4 hPa 0 l/m²
18.04.2015 09:25 4,7 °C 4,7 °C 72 % 1023,4 hPa 0 l/m²
18.04.2015 09:04 5,2 °C 5,2 °C 72 % 1023,4 hPa 0 l/m²
18.04.2015 08:44 4,5 °C 4,5 °C 73 % 1022,4 hPa 0 l/m²
18.04.2015 08:23 4,1 °C 4,1 °C 75 % 1022,4 hPa 0 l/m²
18.04.2015 08:02 3,4 °C 3,4 °C 78 % 1022,4 hPa 0 l/m²
18.04.2015 07:42 2,4 °C 2,4 °C 80 % 1022,4 hPa 0 l/m²
18.04.2015 07:22 1,7 °C 1,7 °C 81 % 1021,4 hPa 0 l/m²
18.04.2015 07:01 0,9 °C 0,9 °C 82 % 1021,4 hPa 0 l/m²
18.04.2015 06:39 0,8 °C 0,8 °C 82 % 1021,4 hPa 0 l/m²
18.04.2015 06:17 0,9 °C 0,9 °C 82 % 1021,4 hPa 0 l/m²
Neue Wetterwarnung

Neue Niederschlagsmeldung
Neue Meldung
Regen Liveticker
    sehr starker Regen/Gewitter
    starker Regen/Gewitter
    mäßiger bis starker Regen
    mäßiger Regen
    leichter bis mäßiger Regen
    kein Regen